Bay De Verde, Canada
Current Conditions -  °F | °C
As of 3:40 AM on Friday 19 Dec 2014 (Local Time) from CYYT Reporting Station
Light Rain Light Rain  
Wind Chill: 38°   Ceiling: 200
Heat Index: 45°   Visibility: 0.5mi
Dew Point: 45°   Wind: 14mph
Humidity: 100%   Direction: 160°SSE
Pressure: 29.45"   Gusts: NA
Location:  48.07°N, 52.93°W
Report Text: CYYT 190640Z 16012KT 1/2SM R11/5500VP6000FT/U R16/5000FT/N -RA FG VV002 07/07 A2945 RMK FG8 SLP977
Loading
Personal Weather Stations






























Interactive Weather Map New forecast layout! Learn more

10-Day Weather Forecast

Advertisements
Track Severe Weather on mobile